sensor_id;sensor_type;location;lat;lon;timestamp;pressure;altitude;pressure_sealevel;temperature;humidity
60583;BME280;46415;47.536;19.066;2023-03-22T00:00:26;100384.00;;;7.73;94.75
60583;BME280;46415;47.536;19.066;2023-03-22T00:03:29;100380.94;;;7.61;95.53
60583;BME280;46415;47.536;19.066;2023-03-22T00:06:32;100376.00;;;7.53;96.13
60583;BME280;46415;47.536;19.066;2023-03-22T00:09:35;100379.66;;;7.46;96.95
60583;BME280;46415;47.536;19.066;2023-03-22T00:12:38;100376.37;;;7.41;98.02
60583;BME280;46415;47.536;19.066;2023-03-22T00:15:42;100374.03;;;7.33;99.23
60583;BME280;46415;47.536;19.066;2023-03-22T00:18:47;100377.59;;;7.29;99.96
60583;BME280;46415;47.536;19.066;2023-03-22T00:21:50;100374.31;;;7.24;100.00
60583;BME280;46415;47.536;19.066;2023-03-22T00:24:52;100375.25;;;7.22;100.00
60583;BME280;46415;47.536;19.066;2023-03-22T00:27:55;100378.63;;;7.24;100.00
60583;BME280;46415;47.536;19.066;2023-03-22T00:30:59;100376.94;;;7.23;100.00
60583;BME280;46415;47.536;19.066;2023-03-22T00:34:02;100377.59;;;7.29;100.00
60583;BME280;46415;47.536;19.066;2023-03-22T00:37:05;100370.72;;;7.30;100.00
60583;BME280;46415;47.536;19.066;2023-03-22T00:40:12;100377.75;;;7.25;100.00
60583;BME280;46415;47.536;19.066;2023-03-22T00:43:15;100375.06;;;7.28;100.00
60583;BME280;46415;47.536;19.066;2023-03-22T00:46:20;100374.41;;;7.21;100.00
60583;BME280;46415;47.536;19.066;2023-03-22T00:49:23;100370.41;;;7.11;100.00
60583;BME280;46415;47.536;19.066;2023-03-22T00:52:27;100370.44;;;7.10;100.00
60583;BME280;46415;47.536;19.066;2023-03-22T00:55:31;100369.91;;;6.98;100.00
60583;BME280;46415;47.536;19.066;2023-03-22T00:58:34;100372.59;;;6.95;100.00
60583;BME280;46415;47.536;19.066;2023-03-22T01:01:38;100368.38;;;6.93;100.00
60583;BME280;46415;47.536;19.066;2023-03-22T01:04:42;100364.19;;;6.89;100.00
60583;BME280;46415;47.536;19.066;2023-03-22T01:07:48;100369.50;;;6.84;100.00
60583;BME280;46415;47.536;19.066;2023-03-22T01:10:53;100364.69;;;6.72;100.00
60583;BME280;46415;47.536;19.066;2023-03-22T01:13:56;100363.88;;;6.70;100.00
60583;BME280;46415;47.536;19.066;2023-03-22T01:17:01;100361.56;;;6.61;100.00
60583;BME280;46415;47.536;19.066;2023-03-22T01:20:04;100357.34;;;6.57;100.00
60583;BME280;46415;47.536;19.066;2023-03-22T01:23:08;100358.16;;;6.59;100.00
60583;BME280;46415;47.536;19.066;2023-03-22T01:26:11;100342.88;;;6.53;100.00
60583;BME280;46415;47.536;19.066;2023-03-22T01:29:14;100341.38;;;6.44;100.00
60583;BME280;46415;47.536;19.066;2023-03-22T01:32:17;100338.22;;;6.35;100.00
60583;BME280;46415;47.536;19.066;2023-03-22T01:35:20;100335.78;;;6.29;100.00
60583;BME280;46415;47.536;19.066;2023-03-22T01:38:23;100348.72;;;6.27;100.00
60583;BME280;46415;47.536;19.066;2023-03-22T01:41:26;100345.13;;;6.33;100.00
60583;BME280;46415;47.536;19.066;2023-03-22T01:44:32;100345.13;;;6.33;100.00
60583;BME280;46415;47.536;19.066;2023-03-22T01:47:35;100346.22;;;6.24;100.00
60583;BME280;46415;47.536;19.066;2023-03-22T01:50:39;100344.56;;;6.22;100.00
60583;BME280;46415;47.536;19.066;2023-03-22T01:53:50;100349.31;;;6.04;100.00
60583;BME280;46415;47.536;19.066;2023-03-22T01:56:53;100344.44;;;5.94;100.00
60583;BME280;46415;47.536;19.066;2023-03-22T01:59:58;100350.59;;;5.87;100.00
60583;BME280;46415;47.536;19.066;2023-03-22T02:03:03;100349.00;;;5.83;100.00
60583;BME280;46415;47.536;19.066;2023-03-22T02:06:08;100347.34;;;5.79;100.00
60583;BME280;46415;47.536;19.066;2023-03-22T02:09:13;100350.88;;;5.74;100.00
60583;BME280;46415;47.536;19.066;2023-03-22T02:15:32;100358.59;;;5.76;100.00
60583;BME280;46415;47.536;19.066;2023-03-22T02:35:35;100361.91;;;5.44;100.00
60583;BME280;46415;47.536;19.066;2023-03-22T02:38:52;100356.78;;;5.43;100.00
60583;BME280;46415;47.536;19.066;2023-03-22T02:45:15;100366.91;;;5.50;100.00
60583;BME280;46415;47.536;19.066;2023-03-22T02:48:27;100367.62;;;5.57;100.00
60583;BME280;46415;47.536;19.066;2023-03-22T02:51:42;100374.38;;;5.61;100.00
60583;BME280;46415;47.536;19.066;2023-03-22T02:54:58;100371.66;;;5.67;100.00
60583;BME280;46415;47.536;19.066;2023-03-22T02:58:16;100378.94;;;5.88;100.00
60583;BME280;46415;47.536;19.066;2023-03-22T03:01:26;100371.97;;;5.90;100.00
60583;BME280;46415;47.536;19.066;2023-03-22T03:04:37;100374.66;;;5.86;100.00
60583;BME280;46415;47.536;19.066;2023-03-22T03:07:47;100377.25;;;5.84;100.00
60583;BME280;46415;47.536;19.066;2023-03-22T03:10:53;100374.66;;;5.87;100.00
60583;BME280;46415;47.536;19.066;2023-03-22T03:13:56;100374.53;;;5.92;100.00
60583;BME280;46415;47.536;19.066;2023-03-22T03:20:26;100380.94;;;6.11;100.00
60583;BME280;46415;47.536;19.066;2023-03-22T03:23:39;100372.06;;;6.21;100.00
60583;BME280;46415;47.536;19.066;2023-03-22T03:27:05;100377.50;;;6.10;100.00
60583;BME280;46415;47.536;19.066;2023-03-22T03:30:14;100378.53;;;6.03;100.00
60583;BME280;46415;47.536;19.066;2023-03-22T03:33:20;100378.63;;;6.00;100.00
60583;BME280;46415;47.536;19.066;2023-03-22T03:36:28;100379.56;;;5.96;100.00
60583;BME280;46415;47.536;19.066;2023-03-22T03:39:37;100388.94;;;6.00;100.00
60583;BME280;46415;47.536;19.066;2023-03-22T03:42:48;100393.06;;;6.06;100.00
60583;BME280;46415;47.536;19.066;2023-03-22T03:45:52;100379.53;;;5.98;100.00
60583;BME280;46415;47.536;19.066;2023-03-22T03:48:56;100372.84;;;5.91;100.00
60583;BME280;46415;47.536;19.066;2023-03-22T03:51:59;100389.22;;;5.88;100.00
60583;BME280;46415;47.536;19.066;2023-03-22T03:55:03;100390.25;;;5.80;100.00
60583;BME280;46415;47.536;19.066;2023-03-22T03:58:06;100381.88;;;5.71;100.00
60583;BME280;46415;47.536;19.066;2023-03-22T04:01:11;100376.88;;;5.65;100.00
60583;BME280;46415;47.536;19.066;2023-03-22T04:04:19;100379.34;;;5.68;100.00
60583;BME280;46415;47.536;19.066;2023-03-22T04:07:28;100377.59;;;5.70;100.00
60583;BME280;46415;47.536;19.066;2023-03-22T04:10:31;100374.25;;;5.67;100.00
60583;BME280;46415;47.536;19.066;2023-03-22T04:13:34;100374.25;;;5.67;100.00
60583;BME280;46415;47.536;19.066;2023-03-22T04:16:37;100366.59;;;5.64;100.00
60583;BME280;46415;47.536;19.066;2023-03-22T04:19:41;100368.94;;;5.73;100.00
60583;BME280;46415;47.536;19.066;2023-03-22T04:22:48;100374.22;;;5.68;100.00
60583;BME280;46415;47.536;19.066;2023-03-22T04:25:52;100372.56;;;5.66;100.00
60583;BME280;46415;47.536;19.066;2023-03-22T04:28:57;100390.47;;;5.70;100.00
60583;BME280;46415;47.536;19.066;2023-03-22T04:32:01;100399.34;;;5.59;100.00
60583;BME280;46415;47.536;19.066;2023-03-22T04:35:05;100391.75;;;5.53;100.00
60583;BME280;46415;47.536;19.066;2023-03-22T04:38:07;100396.94;;;5.51;100.00
60583;BME280;46415;47.536;19.066;2023-03-22T04:41:12;100384.06;;;5.51;100.00
60583;BME280;46415;47.536;19.066;2023-03-22T04:44:15;100401.38;;;5.45;100.00
60583;BME280;46415;47.536;19.066;2023-03-22T04:47:21;100398.88;;;5.42;100.00
60583;BME280;46415;47.536;19.066;2023-03-22T04:50:24;100390.38;;;5.37;100.00
60583;BME280;46415;47.536;19.066;2023-03-22T04:53:31;100392.94;;;5.37;100.00
60583;BME280;46415;47.536;19.066;2023-03-22T04:56:34;100395.53;;;5.37;100.00
60583;BME280;46415;47.536;19.066;2023-03-22T04:59:37;100395.34;;;5.46;100.00
60583;BME280;46415;47.536;19.066;2023-03-22T05:02:40;100396.78;;;5.57;100.00
60583;BME280;46415;47.536;19.066;2023-03-22T05:05:52;100395.94;;;5.57;100.00
60583;BME280;46415;47.536;19.066;2023-03-22T05:08:56;100403.63;;;5.58;100.00
60583;BME280;46415;47.536;19.066;2023-03-22T05:11:59;100424.09;;;5.64;100.00
60583;BME280;46415;47.536;19.066;2023-03-22T05:15:02;100418.91;;;5.66;100.00
60583;BME280;46415;47.536;19.066;2023-03-22T05:18:08;100410.13;;;5.73;100.00
60583;BME280;46415;47.536;19.066;2023-03-22T05:21:15;100415.97;;;5.81;100.00
60583;BME280;46415;47.536;19.066;2023-03-22T05:24:19;100424.44;;;5.88;100.00
60583;BME280;46415;47.536;19.066;2023-03-22T05:27:22;100418.19;;;5.96;100.00
60583;BME280;46415;47.536;19.066;2023-03-22T05:30:34;100413.59;;;6.09;100.00
60583;BME280;46415;47.536;19.066;2023-03-22T05:33:37;100421.84;;;6.23;100.00
60583;BME280;46415;47.536;19.066;2023-03-22T05:36:41;100418.81;;;6.41;100.00
60583;BME280;46415;47.536;19.066;2023-03-22T05:39:44;100427.81;;;6.57;100.00
60583;BME280;46415;47.536;19.066;2023-03-22T05:42:47;100434.38;;;6.69;100.00
60583;BME280;46415;47.536;19.066;2023-03-22T05:45:50;100426.34;;;6.80;100.00
60583;BME280;46415;47.536;19.066;2023-03-22T05:48:54;100425.97;;;6.93;100.00
60583;BME280;46415;47.536;19.066;2023-03-22T05:51:58;100436.53;;;7.15;100.00
60583;BME280;46415;47.536;19.066;2023-03-22T05:55:02;100434.47;;;7.56;100.00
60583;BME280;46415;47.536;19.066;2023-03-22T05:58:05;100441.53;;;7.51;100.00
60583;BME280;46415;47.536;19.066;2023-03-22T06:01:11;100438.72;;;7.57;100.00
60583;BME280;46415;47.536;19.066;2023-03-22T06:04:16;100444.66;;;7.60;100.00
60583;BME280;46415;47.536;19.066;2023-03-22T06:07:20;100454.06;;;7.91;100.00
60583;BME280;46415;47.536;19.066;2023-03-22T06:10:25;100451.97;;;8.02;100.00
60583;BME280;46415;47.536;19.066;2023-03-22T06:13:31;100451.63;;;8.12;100.00
60583;BME280;46415;47.536;19.066;2023-03-22T06:16:34;100455.91;;;8.13;100.00
60583;BME280;46415;47.536;19.066;2023-03-22T06:19:38;100444.22;;;8.28;100.00
60583;BME280;46415;47.536;19.066;2023-03-22T06:22:41;100448.94;;;8.68;100.00
60583;BME280;46415;47.536;19.066;2023-03-22T06:25:44;100465.84;;;9.25;100.00
60583;BME280;46415;47.536;19.066;2023-03-22T06:28:47;100464.91;;;9.51;98.19
60583;BME280;46415;47.536;19.066;2023-03-22T06:31:50;100467.25;;;9.57;97.49
60583;BME280;46415;47.536;19.066;2023-03-22T06:34:54;100475.69;;;9.62;96.66
60583;BME280;46415;47.536;19.066;2023-03-22T06:37:58;100461.53;;;9.92;95.17
60583;BME280;46415;47.536;19.066;2023-03-22T06:41:02;100474.03;;;10.26;93.42
60583;BME280;46415;47.536;19.066;2023-03-22T06:44:04;100468.06;;;10.85;90.39
60583;BME280;46415;47.536;19.066;2023-03-22T06:47:10;100469.84;;;11.23;86.48
60583;BME280;46415;47.536;19.066;2023-03-22T06:50:13;100478.50;;;11.42;84.24
60583;BME280;46415;47.536;19.066;2023-03-22T06:53:22;100476.31;;;11.52;84.71
60583;BME280;46415;47.536;19.066;2023-03-22T06:56:25;100478.00;;;11.72;83.50
60583;BME280;46415;47.536;19.066;2023-03-22T06:59:28;100477.59;;;11.81;83.32
60583;BME280;46415;47.536;19.066;2023-03-22T07:02:31;100472.25;;;12.03;82.36
60583;BME280;46415;47.536;19.066;2023-03-22T07:05:37;100470.50;;;12.20;81.37
60583;BME280;46415;47.536;19.066;2023-03-22T07:08:41;100478.69;;;12.30;81.45
60583;BME280;46415;47.536;19.066;2023-03-22T07:11:46;100482.38;;;12.43;80.68
60583;BME280;46415;47.536;19.066;2023-03-22T07:14:49;100480.63;;;12.26;80.64
60583;BME280;46415;47.536;19.066;2023-03-22T07:17:53;100483.47;;;12.56;79.07
60583;BME280;46415;47.536;19.066;2023-03-22T07:20:56;100494.00;;;12.71;79.10
60583;BME280;46415;47.536;19.066;2023-03-22T07:23:59;100495.38;;;12.78;77.93
60583;BME280;46415;47.536;19.066;2023-03-22T07:27:02;100497.97;;;12.95;77.26
60583;BME280;46415;47.536;19.066;2023-03-22T07:30:07;100497.59;;;13.20;74.88
60583;BME280;46415;47.536;19.066;2023-03-22T07:33:11;100490.09;;;13.29;74.90
60583;BME280;46415;47.536;19.066;2023-03-22T07:36:15;100482.91;;;13.34;74.85
60583;BME280;46415;47.536;19.066;2023-03-22T07:39:18;100488.97;;;13.51;73.39
60583;BME280;46415;47.536;19.066;2023-03-22T07:42:22;100489.50;;;13.57;73.27
60583;BME280;46415;47.536;19.066;2023-03-22T07:45:28;100484.72;;;13.81;69.89
60583;BME280;46415;47.536;19.066;2023-03-22T07:48:34;100494.37;;;13.79;69.97
60583;BME280;46415;47.536;19.066;2023-03-22T07:51:39;100486.97;;;13.87;69.57
60583;BME280;46415;47.536;19.066;2023-03-22T07:54:43;100492.69;;;13.94;70.34
60583;BME280;46415;47.536;19.066;2023-03-22T07:57:45;100483.22;;;14.22;68.31
60583;BME280;46415;47.536;19.066;2023-03-22T08:00:48;100482.13;;;14.26;67.13
60583;BME280;46415;47.536;19.066;2023-03-22T08:03:55;100475.72;;;14.48;66.26
60583;BME280;46415;47.536;19.066;2023-03-22T08:06:59;100472.19;;;14.63;66.20
60583;BME280;46415;47.536;19.066;2023-03-22T08:10:03;100464.78;;;14.55;65.10
60583;BME280;46415;47.536;19.066;2023-03-22T08:13:08;100476.03;;;14.72;64.67
60583;BME280;46415;47.536;19.066;2023-03-22T08:16:11;100477.41;;;15.07;62.40
60583;BME280;46415;47.536;19.066;2023-03-22T08:19:14;100474.13;;;15.18;61.17
60583;BME280;46415;47.536;19.066;2023-03-22T08:22:17;100475.44;;;15.25;60.54
60583;BME280;46415;47.536;19.066;2023-03-22T08:25:24;100473.38;;;15.16;60.75
60583;BME280;46415;47.536;19.066;2023-03-22T08:28:27;100475.16;;;15.01;60.79
60583;BME280;46415;47.536;19.066;2023-03-22T08:31:30;100480.28;;;15.31;59.36
60583;BME280;46415;47.536;19.066;2023-03-22T08:34:37;100485.69;;;15.28;59.43
60583;BME280;46415;47.536;19.066;2023-03-22T08:37:40;100488.66;;;15.07;59.10
60583;BME280;46415;47.536;19.066;2023-03-22T08:40:47;100491.19;;;15.09;58.53
60583;BME280;46415;47.536;19.066;2023-03-22T08:43:52;100488.75;;;14.92;59.07
60583;BME280;46415;47.536;19.066;2023-03-22T08:46:55;100487.66;;;15.10;58.81
60583;BME280;46415;47.536;19.066;2023-03-22T08:49:58;100481.50;;;15.25;58.02
60583;BME280;46415;47.536;19.066;2023-03-22T08:53:02;100474.00;;;15.33;58.83
60583;BME280;46415;47.536;19.066;2023-03-22T08:56:06;100479.44;;;15.30;57.95
60583;BME280;46415;47.536;19.066;2023-03-22T08:59:10;100473.91;;;15.49;58.08
60583;BME280;46415;47.536;19.066;2023-03-22T09:02:13;100479.66;;;15.82;57.59
60583;BME280;46415;47.536;19.066;2023-03-22T09:05:16;100484.34;;;15.77;56.74
60583;BME280;46415;47.536;19.066;2023-03-22T09:08:19;100494.06;;;15.75;57.71
60583;BME280;46415;47.536;19.066;2023-03-22T09:11:23;100487.87;;;15.90;56.38
60583;BME280;46415;47.536;19.066;2023-03-22T09:14:26;100488.00;;;16.28;56.15
60583;BME280;46415;47.536;19.066;2023-03-22T09:17:29;100489.59;;;16.31;55.38
60583;BME280;46415;47.536;19.066;2023-03-22T09:20:32;100487.72;;;16.46;54.61
60583;BME280;46415;47.536;19.066;2023-03-22T09:23:37;100489.00;;;16.53;54.56
60583;BME280;46415;47.536;19.066;2023-03-22T09:26:41;100489.31;;;17.00;53.48
60583;BME280;46415;47.536;19.066;2023-03-22T09:29:44;100488.13;;;16.66;53.79
60583;BME280;46415;47.536;19.066;2023-03-22T09:32:47;100483.84;;;16.65;54.08
60583;BME280;46415;47.536;19.066;2023-03-22T09:35:53;100475.16;;;16.78;53.96
60583;BME280;46415;47.536;19.066;2023-03-22T09:38:56;100475.03;;;16.79;54.11
60583;BME280;46415;47.536;19.066;2023-03-22T09:42:01;100474.72;;;16.71;53.81
60583;BME280;46415;47.536;19.066;2023-03-22T09:45:10;100464.97;;;16.73;54.29
60583;BME280;46415;47.536;19.066;2023-03-22T09:48:26;100466.81;;;16.58;54.50
60583;BME280;46415;47.536;19.066;2023-03-22T09:51:39;100464.56;;;16.66;54.25
60583;BME280;46415;47.536;19.066;2023-03-22T09:54:45;100459.88;;;16.57;54.57
60583;BME280;46415;47.536;19.066;2023-03-22T09:57:56;100457.81;;;16.75;53.72
60583;BME280;46415;47.536;19.066;2023-03-22T10:04:47;100463.13;;;16.48;54.27
60583;BME280;46415;47.536;19.066;2023-03-22T10:08:07;100456.50;;;16.30;54.90
60583;BME280;46415;47.536;19.066;2023-03-22T10:11:37;100460.03;;;15.89;56.07
60583;BME280;46415;47.536;19.066;2023-03-22T10:17:52;100454.28;;;15.56;58.05
60583;BME280;46415;47.536;19.066;2023-03-22T10:21:02;100451.69;;;15.42;58.48
60583;BME280;46415;47.536;19.066;2023-03-22T10:24:15;100454.13;;;15.59;58.25
60583;BME280;46415;47.536;19.066;2023-03-22T10:27:20;100453.91;;;15.62;57.76
60583;BME280;46415;47.536;19.066;2023-03-22T10:30:25;100447.59;;;15.52;58.66
60583;BME280;46415;47.536;19.066;2023-03-22T10:33:40;100450.09;;;15.39;58.60
60583;BME280;46415;47.536;19.066;2023-03-22T10:36:51;100453.25;;;15.44;58.98
60583;BME280;46415;47.536;19.066;2023-03-22T10:39:57;100449.53;;;15.48;58.99
60583;BME280;46415;47.536;19.066;2023-03-22T10:46:17;100452.78;;;15.38;59.20
60583;BME280;46415;47.536;19.066;2023-03-22T10:49:26;100446.00;;;15.21;59.64
60583;BME280;46415;47.536;19.066;2023-03-22T10:55:52;100445.66;;;15.13;60.11
60583;BME280;46415;47.536;19.066;2023-03-22T10:58:55;100443.87;;;14.99;60.84
60583;BME280;46415;47.536;19.066;2023-03-22T11:01:59;100443.09;;;14.97;61.06
60583;BME280;46415;47.536;19.066;2023-03-22T11:05:05;100437.81;;;14.99;61.21
60583;BME280;46415;47.536;19.066;2023-03-22T11:08:13;100431.81;;;14.83;61.33
60583;BME280;46415;47.536;19.066;2023-03-22T11:11:26;100435.62;;;14.91;61.37
60583;BME280;46415;47.536;19.066;2023-03-22T11:14:31;100421.56;;;14.94;61.19
60583;BME280;46415;47.536;19.066;2023-03-22T11:17:37;100423.34;;;14.93;61.67
60583;BME280;46415;47.536;19.066;2023-03-22T11:20:42;100416.25;;;14.95;61.49
60583;BME280;46415;47.536;19.066;2023-03-22T11:23:57;100415.97;;;15.00;61.55
60583;BME280;46415;47.536;19.066;2023-03-22T11:30:18;100400.06;;;15.03;61.66
60583;BME280;46415;47.536;19.066;2023-03-22T11:33:22;100402.00;;;15.28;61.16
60583;BME280;46415;47.536;19.066;2023-03-22T11:36:28;100408.25;;;15.39;60.84
60583;BME280;46415;47.536;19.066;2023-03-22T11:39:31;100403.28;;;15.63;59.26
60583;BME280;46415;47.536;19.066;2023-03-22T11:42:34;100396.19;;;16.05;58.29
60583;BME280;46415;47.536;19.066;2023-03-22T11:45:41;100393.13;;;16.50;56.84
60583;BME280;46415;47.536;19.066;2023-03-22T11:48:48;100398.47;;;16.99;54.95
60583;BME280;46415;47.536;19.066;2023-03-22T11:51:53;100397.56;;;17.37;53.19
60583;BME280;46415;47.536;19.066;2023-03-22T11:54:58;100383.66;;;17.47;52.98
60583;BME280;46415;47.536;19.066;2023-03-22T11:58:03;100388.81;;;17.62;52.42
60583;BME280;46415;47.536;19.066;2023-03-22T12:01:12;100387.41;;;17.92;52.23
60583;BME280;46415;47.536;19.066;2023-03-22T12:04:23;100384.84;;;18.15;50.04
60583;BME280;46415;47.536;19.066;2023-03-22T12:07:28;100393.56;;;18.15;50.14
60583;BME280;46415;47.536;19.066;2023-03-22T12:10:39;100397.19;;;18.36;48.65
60583;BME280;46415;47.536;19.066;2023-03-22T12:13:50;100389.53;;;18.57;48.36
60583;BME280;46415;47.536;19.066;2023-03-22T12:17:03;100386.78;;;18.92;47.52
60583;BME280;46415;47.536;19.066;2023-03-22T12:20:25;100385.69;;;18.95;47.18
60583;BME280;46415;47.536;19.066;2023-03-22T12:23:33;100388.47;;;18.93;46.81
60583;BME280;46415;47.536;19.066;2023-03-22T12:26:36;100382.84;;;18.64;47.16
60583;BME280;46415;47.536;19.066;2023-03-22T12:29:55;100378.28;;;18.66;47.17
60583;BME280;46415;47.536;19.066;2023-03-22T12:33:15;100374.81;;;18.66;47.09
60583;BME280;46415;47.536;19.066;2023-03-22T12:36:24;100378.06;;;18.69;47.42
60583;BME280;46415;47.536;19.066;2023-03-22T12:39:33;100379.00;;;18.91;46.22
60583;BME280;46415;47.536;19.066;2023-03-22T12:42:41;100378.53;;;19.08;45.84
60583;BME280;46415;47.536;19.066;2023-03-22T12:45:56;100378.19;;;19.12;45.80
60583;BME280;46415;47.536;19.066;2023-03-22T12:55:34;100371.81;;;19.15;45.20
60583;BME280;46415;47.536;19.066;2023-03-22T12:58:38;100366.19;;;19.20;43.58
60583;BME280;46415;47.536;19.066;2023-03-22T13:01:52;100366.37;;;19.61;41.28
60583;BME280;46415;47.536;19.066;2023-03-22T13:05:00;100362.50;;;19.76;40.87
60583;BME280;46415;47.536;19.066;2023-03-22T13:08:06;100355.31;;;19.46;40.46
60583;BME280;46415;47.536;19.066;2023-03-22T13:11:21;100344.50;;;19.38;40.94
60583;BME280;46415;47.536;19.066;2023-03-22T13:18:01;100334.91;;;20.12;38.90
60583;BME280;46415;47.536;19.066;2023-03-22T13:21:19;100335.75;;;20.13;37.46
60583;BME280;46415;47.536;19.066;2023-03-22T13:24:22;100334.38;;;19.77;37.79
60583;BME280;46415;47.536;19.066;2023-03-22T13:27:37;100330.44;;;19.92;37.46
60583;BME280;46415;47.536;19.066;2023-03-22T13:30:48;100321.19;;;19.77;36.19
60583;BME280;46415;47.536;19.066;2023-03-22T13:33:52;100331.28;;;19.92;36.47
60583;BME280;46415;47.536;19.066;2023-03-22T13:36:55;100326.16;;;19.91;36.90
60583;BME280;46415;47.536;19.066;2023-03-22T13:39:59;100317.38;;;20.02;36.17
60583;BME280;46415;47.536;19.066;2023-03-22T13:49:56;100315.19;;;19.43;37.01
60583;BME280;46415;47.536;19.066;2023-03-22T13:56:10;100302.72;;;19.56;37.91
60583;BME280;46415;47.536;19.066;2023-03-22T13:59:18;100294.16;;;19.32;38.64
60583;BME280;46415;47.536;19.066;2023-03-22T14:02:32;100303.09;;;19.51;38.63
60583;BME280;46415;47.536;19.066;2023-03-22T14:05:38;100302.00;;;19.43;39.08
60583;BME280;46415;47.536;19.066;2023-03-22T14:08:42;100294.91;;;19.23;38.71
60583;BME280;46415;47.536;19.066;2023-03-22T14:11:52;100295.50;;;19.26;39.25
60583;BME280;46415;47.536;19.066;2023-03-22T14:15:00;100291.19;;;19.36;39.01
60583;BME280;46415;47.536;19.066;2023-03-22T14:18:19;100292.31;;;19.43;39.21
60583;BME280;46415;47.536;19.066;2023-03-22T14:21:33;100295.78;;;19.12;38.29
60583;BME280;46415;47.536;19.066;2023-03-22T14:24:36;100283.00;;;18.96;38.71
60583;BME280;46415;47.536;19.066;2023-03-22T14:27:39;100277.44;;;18.67;39.17
60583;BME280;46415;47.536;19.066;2023-03-22T14:30:43;100274.78;;;18.79;38.75
60583;BME280;46415;47.536;19.066;2023-03-22T14:33:45;100275.63;;;18.79;38.65
60583;BME280;46415;47.536;19.066;2023-03-22T14:36:48;100280.16;;;18.77;38.61
60583;BME280;46415;47.536;19.066;2023-03-22T14:39:55;100276.72;;;18.65;39.11
60583;BME280;46415;47.536;19.066;2023-03-22T14:46:25;100275.53;;;18.58;40.34
60583;BME280;46415;47.536;19.066;2023-03-22T14:49:38;100271.81;;;18.72;40.01
60583;BME280;46415;47.536;19.066;2023-03-22T14:52:42;100268.50;;;18.59;40.32
60583;BME280;46415;47.536;19.066;2023-03-22T14:55:47;100272.06;;;18.58;40.61
60583;BME280;46415;47.536;19.066;2023-03-22T14:58:53;100265.59;;;18.51;40.82
60583;BME280;46415;47.536;19.066;2023-03-22T15:02:02;100260.94;;;18.32;41.33
60583;BME280;46415;47.536;19.066;2023-03-22T15:05:08;100269.53;;;18.23;41.75
60583;BME280;46415;47.536;19.066;2023-03-22T15:11:18;100267.00;;;17.99;42.95
60583;BME280;46415;47.536;19.066;2023-03-22T15:14:21;100255.75;;;17.97;42.96
60583;BME280;46415;47.536;19.066;2023-03-22T15:17:23;100254.66;;;18.00;43.62
60583;BME280;46415;47.536;19.066;2023-03-22T15:20:30;100252.41;;;17.95;44.12
60583;BME280;46415;47.536;19.066;2023-03-22T15:26:36;100249.06;;;17.93;44.87
60583;BME280;46415;47.536;19.066;2023-03-22T15:29:42;100241.53;;;18.00;44.54
60583;BME280;46415;47.536;19.066;2023-03-22T15:32:44;100244.31;;;18.09;44.12
60583;BME280;46415;47.536;19.066;2023-03-22T15:35:47;100239.31;;;18.28;43.92
60583;BME280;46415;47.536;19.066;2023-03-22T15:38:50;100235.59;;;18.20;44.20
60583;BME280;46415;47.536;19.066;2023-03-22T15:41:55;100245.41;;;18.29;44.08
60583;BME280;46415;47.536;19.066;2023-03-22T15:45:18;100232.75;;;18.23;44.18
60583;BME280;46415;47.536;19.066;2023-03-22T15:48:19;100236.41;;;18.87;43.39
60583;BME280;46415;47.536;19.066;2023-03-22T15:51:35;100235.34;;;20.36;40.44
60583;BME280;46415;47.536;19.066;2023-03-22T15:57:57;100233.81;;;22.46;35.53
60583;BME280;46415;47.536;19.066;2023-03-22T16:01:14;100237.75;;;23.67;33.78
60583;BME280;46415;47.536;19.066;2023-03-22T16:04:22;100233.53;;;24.08;32.89
60583;BME280;46415;47.536;19.066;2023-03-22T16:07:24;100232.00;;;23.97;32.85
60583;BME280;46415;47.536;19.066;2023-03-22T16:10:27;100237.88;;;23.83;33.03
60583;BME280;46415;47.536;19.066;2023-03-22T16:13:30;100235.50;;;21.90;35.79
60583;BME280;46415;47.536;19.066;2023-03-22T16:16:31;100235.56;;;20.64;38.12
60583;BME280;46415;47.536;19.066;2023-03-22T16:19:33;100231.97;;;19.31;41.21
60583;BME280;46415;47.536;19.066;2023-03-22T16:22:35;100235.00;;;18.50;42.91
60583;BME280;46415;47.536;19.066;2023-03-22T16:25:36;100227.53;;;17.77;44.90
60583;BME280;46415;47.536;19.066;2023-03-22T16:28:38;100224.72;;;17.21;46.68
60583;BME280;46415;47.536;19.066;2023-03-22T16:31:40;100232.84;;;16.82;48.19
60583;BME280;46415;47.536;19.066;2023-03-22T16:34:43;100230.13;;;16.58;48.84
60583;BME280;46415;47.536;19.066;2023-03-22T16:37:45;100236.69;;;16.27;50.23
60583;BME280;46415;47.536;19.066;2023-03-22T16:40:50;100234.28;;;15.99;51.45
60583;BME280;46415;47.536;19.066;2023-03-22T16:43:55;100241.41;;;15.84;51.41
60583;BME280;46415;47.536;19.066;2023-03-22T16:46:59;100239.81;;;15.69;51.69
60583;BME280;46415;47.536;19.066;2023-03-22T16:50:00;100245.66;;;15.33;52.92
60583;BME280;46415;47.536;19.066;2023-03-22T16:53:02;100247.06;;;15.11;53.64
60583;BME280;46415;47.536;19.066;2023-03-22T16:56:04;100246.00;;;14.87;54.26
60583;BME280;46415;47.536;19.066;2023-03-22T16:59:06;100247.34;;;14.66;55.14
60583;BME280;46415;47.536;19.066;2023-03-22T17:02:18;100248.78;;;14.43;56.29
60583;BME280;46415;47.536;19.066;2023-03-22T17:05:21;100236.19;;;14.21;56.91
60583;BME280;46415;47.536;19.066;2023-03-22T17:08:25;100241.75;;;14.01;57.72
60583;BME280;46415;47.536;19.066;2023-03-22T17:11:27;100241.91;;;13.84;58.80
60583;BME280;46415;47.536;19.066;2023-03-22T17:14:30;100242.47;;;13.75;59.83